createdAt,value
2022-08-26T00:04:45.353Z,100
2022-08-26T00:10:41.952Z,100
2022-08-26T00:16:03.145Z,100
2022-08-26T00:21:30.775Z,100
2022-08-26T00:27:30.673Z,100
2022-08-26T00:32:38.751Z,100
2022-08-26T00:38:23.954Z,100
2022-08-26T00:44:07.510Z,100
2022-08-26T00:49:48.644Z,100
2022-08-26T00:55:06.182Z,100
2022-08-26T01:00:45.189Z,100
2022-08-26T01:06:25.983Z,100
2022-08-26T01:11:50.634Z,100
2022-08-26T01:17:25.605Z,100
2022-08-26T01:23:04.398Z,100
2022-08-26T01:28:42.567Z,100
2022-08-26T01:34:13.473Z,100
2022-08-26T01:40:00.950Z,100
2022-08-26T01:45:33.385Z,100
2022-08-26T01:50:48.605Z,100
2022-08-26T01:56:33.224Z,100
2022-08-26T02:02:19.429Z,100
2022-08-26T02:07:48.327Z,100
2022-08-26T02:13:17.738Z,100
2022-08-26T02:18:50.313Z,100
2022-08-26T02:24:17.206Z,100
2022-08-26T02:29:52.567Z,100
2022-08-26T02:35:50.270Z,100
2022-08-26T02:40:56.998Z,100
2022-08-26T02:46:36.276Z,100
2022-08-26T02:52:18.456Z,100
2022-08-26T02:58:09.508Z,100
2022-08-26T03:03:24.215Z,100
2022-08-26T03:09:18.458Z,100
2022-08-26T03:14:31.767Z,100
2022-08-26T03:20:02.599Z,100
2022-08-26T03:25:38.981Z,100
2022-08-26T03:31:27.794Z,100
2022-08-26T03:36:56.464Z,100
2022-08-26T03:42:35.592Z,100
2022-08-26T03:48:13.013Z,100
2022-08-26T03:53:50.491Z,100
2022-08-26T03:59:19.164Z,100
2022-08-26T04:04:40.705Z,100
2022-08-26T04:10:15.999Z,100
2022-08-26T04:15:49.243Z,100
2022-08-26T04:21:25.239Z,100
2022-08-26T04:27:12.209Z,100
2022-08-26T04:32:37.142Z,100
2022-08-26T04:38:27.405Z,100
2022-08-26T04:43:46.448Z,100
2022-08-26T04:49:35.304Z,100
2022-08-26T04:54:52.794Z,100
2022-08-26T05:00:48.261Z,100
2022-08-26T05:06:16.318Z,100
2022-08-26T05:11:35.044Z,100
2022-08-26T05:17:17.776Z,100
2022-08-26T05:22:56.426Z,100
2022-08-26T05:28:24.667Z,100
2022-08-26T05:33:51.061Z,100
2022-08-26T05:39:27.590Z,100
2022-08-26T05:45:24.287Z,100
2022-08-26T05:50:45.913Z,100
2022-08-26T05:56:30.023Z,100
2022-08-26T06:01:52.367Z,100
2022-08-26T06:07:27.890Z,100
2022-08-26T06:13:23.547Z,100
2022-08-26T06:18:40.666Z,100
2022-08-26T06:24:30.062Z,100
2022-08-26T06:29:55.978Z,100
2022-08-26T06:35:37.403Z,100
2022-08-26T06:41:15.079Z,100
2022-08-26T06:46:42.278Z,100
2022-08-26T06:52:32.232Z,100
2022-08-26T06:58:05.204Z,100
2022-08-26T07:03:30.884Z,100
2022-08-26T07:09:13.861Z,100
2022-08-26T07:14:43.834Z,100
2022-08-26T07:20:11.404Z,100
2022-08-26T07:25:49.060Z,100
2022-08-26T07:31:37.405Z,100
2022-08-26T07:37:22.014Z,100
2022-08-26T07:42:36.809Z,100
2022-08-26T07:48:32.120Z,100
2022-08-26T07:53:48.006Z,100
2022-08-26T07:59:45.835Z,100
2022-08-26T08:04:59.823Z,100
2022-08-26T08:10:33.920Z,100
2022-08-26T08:16:32.176Z,100
2022-08-26T08:22:02.539Z,100
2022-08-26T08:27:43.050Z,100
2022-08-26T08:33:09.989Z,100
2022-08-26T08:38:57.781Z,100
2022-08-26T08:44:38.903Z,100
2022-08-26T08:50:07.554Z,100
2022-08-26T08:55:29.640Z,100
2022-08-26T09:01:24.212Z,100
2022-08-26T09:07:11.936Z,100
2022-08-26T09:12:34.535Z,100
2022-08-26T09:18:00.341Z,100
2022-08-26T09:23:53.851Z,100
2022-08-26T09:29:35.329Z,100
2022-08-26T09:35:11.115Z,100
2022-08-26T09:40:36.203Z,100
2022-08-26T09:46:37.324Z,95
2022-08-26T09:52:18.197Z,91
2022-08-26T09:57:41.071Z,94
2022-08-26T10:03:25.105Z,100
2022-08-26T10:09:13.099Z,100
2022-08-26T10:14:28.121Z,100
2022-08-26T10:20:13.652Z,100
2022-08-26T10:25:52.545Z,100
2022-08-26T10:31:38.380Z,100
2022-08-26T10:37:10.853Z,100
2022-08-26T10:43:04.112Z,100
2022-08-26T10:48:20.828Z,100
2022-08-26T10:54:14.984Z,100
2022-08-26T10:59:57.243Z,100
2022-08-26T11:05:40.759Z,98
2022-08-26T11:11:08.265Z,99
2022-08-26T11:16:58.244Z,96
2022-08-26T11:22:14.238Z,93
2022-08-26T11:28:13.146Z,88
2022-08-26T11:33:35.471Z,87
2022-08-26T11:39:25.756Z,89
2022-08-26T11:44:52.626Z,81
2022-08-26T11:50:42.706Z,82
2022-08-26T11:56:13.992Z,77
2022-08-26T12:02:12.050Z,77
2022-08-26T12:07:37.935Z,77
2022-08-26T12:13:32.506Z,73
2022-08-26T12:19:07.318Z,74
2022-08-26T12:24:54.676Z,87
2022-08-26T12:30:14.363Z,93
2022-08-26T12:35:57.189Z,97
2022-08-26T12:41:43.134Z,94
2022-08-26T12:47:13.241Z,95
2022-08-26T12:52:47.903Z,96
2022-08-26T12:58:44.737Z,97
2022-08-26T13:04:22.609Z,96
2022-08-26T13:09:45.860Z,98
2022-08-26T13:15:16.767Z,98
2022-08-26T13:20:50.941Z,99
2022-08-26T13:26:46.542Z,100
2022-08-26T13:32:17.988Z,100
2022-08-26T13:37:51.851Z,100
2022-08-26T13:43:30.429Z,100
2022-08-26T13:49:13.348Z,100
2022-08-26T13:54:40.181Z,100
2022-08-26T14:00:11.022Z,100
2022-08-26T14:06:13.432Z,100
2022-08-26T14:11:29.024Z,100
2022-08-26T14:17:23.008Z,100
2022-08-26T14:23:13.488Z,100
2022-08-26T14:28:23.590Z,100
2022-08-26T14:34:14.367Z,100
2022-08-26T14:39:42.618Z,100
2022-08-26T14:45:22.330Z,100
2022-08-26T14:50:58.348Z,100
2022-08-26T14:56:40.576Z,100
2022-08-26T15:02:00.810Z,100
2022-08-26T15:07:42.851Z,100
2022-08-26T15:13:17.590Z,100
2022-08-26T15:19:07.086Z,100
2022-08-26T15:24:51.798Z,100
2022-08-26T15:30:05.325Z,100
2022-08-26T15:36:05.861Z,100
2022-08-26T15:41:25.345Z,100
2022-08-26T15:47:05.786Z,100
2022-08-26T15:52:51.447Z,100
2022-08-26T15:58:10.183Z,100
2022-08-26T16:04:08.992Z,100
2022-08-26T16:09:30.209Z,100
2022-08-26T16:14:59.009Z,100
2022-08-26T16:20:50.123Z,100
2022-08-26T16:26:34.136Z,100
2022-08-26T16:31:49.100Z,100
2022-08-26T16:37:30.021Z,100
2022-08-26T16:43:03.651Z,100
2022-08-26T16:48:48.565Z,100
2022-08-26T16:54:37.653Z,100
2022-08-26T16:59:49.247Z,100
2022-08-26T17:05:45.378Z,100
2022-08-26T17:11:01.732Z,100
2022-08-26T17:17:01.068Z,100
2022-08-26T17:22:18.086Z,100
2022-08-26T17:33:55.040Z,100
2022-08-26T17:39:06.434Z,100
2022-08-26T17:44:48.511Z,100
2022-08-26T17:50:27.499Z,100
2022-08-26T17:56:14.148Z,100
2022-08-26T18:01:43.836Z,100
2022-08-26T18:07:05.967Z,100
2022-08-26T18:13:04.005Z,100
2022-08-26T18:18:31.560Z,100
2022-08-26T18:24:13.925Z,100
2022-08-26T18:29:45.904Z,100
2022-08-26T18:35:12.191Z,100
2022-08-26T18:40:44.869Z,100
2022-08-26T18:46:16.357Z,100
2022-08-26T18:51:56.272Z,100
2022-08-26T18:57:45.094Z,100
2022-08-26T19:03:06.358Z,100
2022-08-26T19:08:37.564Z,100
2022-08-26T19:14:37.618Z,100
2022-08-26T19:19:48.084Z,100
2022-08-26T19:25:33.660Z,100
2022-08-26T19:31:19.989Z,100
2022-08-26T19:36:54.683Z,100
2022-08-26T19:42:08.699Z,100
2022-08-26T19:48:11.483Z,100
2022-08-26T19:53:19.064Z,100
2022-08-26T19:59:16.933Z,100
2022-08-26T20:04:59.456Z,100
2022-08-26T20:10:33.599Z,100
2022-08-26T20:16:08.472Z,100
2022-08-26T20:21:19.312Z,100
2022-08-26T20:27:05.545Z,100
2022-08-26T20:32:51.681Z,100
2022-08-26T20:38:06.508Z,100
2022-08-26T20:44:00.035Z,100
2022-08-26T20:49:15.686Z,100
2022-08-26T20:55:12.702Z,100
2022-08-26T21:00:33.959Z,100
2022-08-26T21:06:25.134Z,100
2022-08-26T21:11:33.983Z,100
2022-08-26T21:17:13.114Z,100
2022-08-26T21:22:46.289Z,100
2022-08-26T21:28:28.069Z,100
2022-08-26T21:33:59.208Z,100
2022-08-26T21:39:52.712Z,100
2022-08-26T21:45:25.803Z,100
2022-08-26T21:50:47.136Z,100
2022-08-26T21:56:24.293Z,100
2022-08-26T22:02:05.558Z,100
2022-08-26T22:07:41.938Z,100
2022-08-26T22:13:03.659Z,100
2022-08-26T22:18:48.953Z,100
2022-08-26T22:24:27.025Z,100
2022-08-26T22:30:04.355Z,100
2022-08-26T22:35:46.289Z,100
2022-08-26T22:41:17.485Z,100
2022-08-26T22:47:02.343Z,100
2022-08-26T22:52:21.756Z,100
2022-08-26T22:58:05.374Z,100
2022-08-26T23:03:43.375Z,100
2022-08-26T23:09:15.960Z,100
2022-08-26T23:15:00.925Z,100
2022-08-26T23:20:39.277Z,100
2022-08-26T23:25:56.924Z,100
2022-08-26T23:31:40.018Z,100
2022-08-26T23:37:01.804Z,100
2022-08-26T23:42:55.441Z,100
2022-08-26T23:48:11.112Z,100
2022-08-26T23:53:41.805Z,100
2022-08-26T23:59:41.221Z,100
